Kentucky Observed Data For Previous 48 Hours

Caption
Day and Hour Reservoir Elevation (behind dam)* Tailwater Elevation (below dam)* Average Hourly Discharge*
3/24/2019 1 AM CDT 355.01 325.89 144,038
3/24/2019 2 AM CDT 355.00 325.85 143,857
3/24/2019 3 AM CDT 354.99 325.75 143,685
3/24/2019 4 AM CDT 354.97 325.67 143,432
3/24/2019 5 AM CDT 354.96 325.59 143,163
3/24/2019 6 AM CDT 354.95 325.53 142,995
3/24/2019 7 AM CDT 354.93 325.42 142,740
3/24/2019 8 AM CDT 354.93 325.42 142,600
3/24/2019 9 AM CDT 354.91 325.38 142,392
3/24/2019 10 AM CDT 354.95 325.30 142,558
3/24/2019 11 AM CDT 354.92 325.20 142,653
3/24/2019 12 PM CDT 354.90 325.17 142,225
3/24/2019 1 PM CDT 354.92 325.02 142,218
3/24/2019 2 PM CDT 354.93 324.99 142,472
3/24/2019 3 PM CDT 354.91 324.96 142,392
3/24/2019 4 PM CDT 354.88 324.92 141,963
3/24/2019 5 PM CDT 354.84 324.88 141,362
3/24/2019 6 PM CDT 354.81 324.76 140,758
3/24/2019 7 PM CDT 354.77 324.69 140,160
3/24/2019 8 PM CDT 354.75 324.63 139,643
3/24/2019 9 PM CDT 354.73 324.53 139,300
3/24/2019 10 PM CDT 354.71 324.48 138,957
3/24/2019 11 PM CDT 354.68 324.39 138,532
3/25/2019 12 AM CDT 354.63 324.42 137,850
3/25/2019 1 AM CDT 354.64 324.33 137,502
3/25/2019 2 AM CDT 354.64 324.25 137,600
3/25/2019 3 AM CDT 354.58 324.20 137,087
3/25/2019 4 AM CDT 354.62 324.13 136,900
3/25/2019 5 AM CDT 354.52 324.02 136,410
3/25/2019 6 AM CDT 354.55 324.02 135,797
3/25/2019 7 AM CDT 354.53 324.04 135,888
3/25/2019 8 AM CDT 354.51 323.97 135,550
3/25/2019 9 AM CDT 354.42 323.87 135,492
3/25/2019 10 AM CDT 354.38 323.77 134,005
3/25/2019 11 AM CDT 354.34 323.73 132,848
3/25/2019 12 PM CDT 354.27 323.71 131,925
3/25/2019 1 PM CDT 354.25 323.53 131,160
3/25/2019 2 PM CDT 354.25 323.25 119,633
3/25/2019 3 PM CDT 354.26 322.98 108,362
3/25/2019 4 PM CDT 354.24 322.70 98,178
3/25/2019 5 PM CDT 354.23 322.61 97,988
3/25/2019 6 PM CDT 354.26 322.50 98,110
3/25/2019 7 PM CDT 354.28 322.45 98,425
3/25/2019 8 PM CDT 354.28 322.37 98,550
3/25/2019 9 PM CDT 354.32 322.19 98,801
3/25/2019 10 PM CDT 354.37 322.12 99,367
3/25/2019 11 PM CDT 354.41 322.04 99,938
3/26/2019 12 AM CDT 354.41 321.95 100,200
3/26/2019 1 AM CDT 354.40 322.05 100,135
3/26/2019 2 AM CDT 354.43 321.77 100,253
3/26/2019 3 AM CDT 354.44 321.73 100,515
3/26/2019 4 AM CDT 354.44 321.65 100,600
3/26/2019 5 AM CDT 354.44 321.58 100,600
3/26/2019 6 AM CDT 354.44 321.52 100,600
3/26/2019 7 AM CDT 354.45 321.46 100,640
3/26/2019 8 AM CDT 354.45 321.36 100,700
3/26/2019 9 AM CDT 354.50 321.14 100,639
3/26/2019 10 AM CDT 354.56 320.83 90,472
3/26/2019 11 AM CDT 354.56 320.74 79,540
3/26/2019 12 PM CDT 354.57 320.65 79,585
3/26/2019 1 PM CDT 354.55 320.51 79,538

Elevations are in feet above sea level. Discharges are in cubic feet per second and are reported at the end of the hour.